Huvudsida
METAR-TAF:

METAR-TAF

Flygplatser :

Kirkwall Airport

Kirkwall, Skottland

latitud: 58-57N, longitud: 002-54W, höjd: 21 m

Aktuellt väderrapport

Denna rapport gjordes för 15 minuter sedan, klockan 20:20 UTC
Vind 6 kt från syd/sydost
Temperatur 11°C
Fuktighet 94%
Tryck 1025 hPa
Sikt 10 km eller mer

METAR: EGPA 292020Z AUTO 15006KT 9999 NCD 11/10 Q1025

Tid: 21:35 (20:35 UTC)

Väderprognos

Denna rapport gjordes för 6 timmar och 40 minuter sedan, klockan 13:55 UTC
Prognos gäller från 29 kl. 15 UTC till 29 kl. 24 UTC
Vind 12 kt från sydost
Sikt 10 km eller mer
Få moln på en höjd av 3000 ft
Sannolikhet 40% :
Temporärt
från 29 kl. 18 UTC till 29 kl. 24 UTC
Vind 15 kt från syd/sydost i byarna ända upp till 25 kt

TAF: EGPA 291355Z 2915/2924 13012KT 9999 FEW030 PROB40 TEMPO 2918/2924 15015G25KT

Aktuella väderrapporter och prognoser från 4000 flygplatser (METAR- och TAF-rapporter).

De tillgängliga stationerna syns som gula och röda prickar på kartan.

För musen över prickarna för att se namnen på stationerna.

Klicka sedan för att få väderrapporter och prognoser.

För att ändra kartan: Klicka på de gröna knapparna med ett svart kors på för att zooma in; den gröna knappen med ett streck på för att zooma ut; eller på de gröna pilarna för angränsande kartor.


METAR-TAF: